createdAt,value
2019-05-21T00:00:56.512Z,10.80
2019-05-21T00:03:26.455Z,10.80
2019-05-21T00:05:55.927Z,10.80
2019-05-21T00:08:29.460Z,10.80
2019-05-21T00:11:06.146Z,10.80
2019-05-21T00:13:35.609Z,10.80
2019-05-21T00:16:05.166Z,10.90
2019-05-21T00:18:34.720Z,10.90
2019-05-21T00:21:04.101Z,10.90
2019-05-21T00:23:34.847Z,10.90
2019-05-21T00:26:07.258Z,10.90
2019-05-21T00:28:38.612Z,11.00
2019-05-21T00:31:44.030Z,11.00
2019-05-21T00:34:50.958Z,10.90
2019-05-21T00:37:57.629Z,11.00
2019-05-21T00:41:03.132Z,11.00
2019-05-21T00:44:01.234Z,10.90
2019-05-21T00:46:30.968Z,10.90
2019-05-21T00:49:01.645Z,11.00
2019-05-21T00:51:33.415Z,11.00
2019-05-21T00:54:03.901Z,10.90
2019-05-21T00:56:34.989Z,10.90
2019-05-21T00:59:06.194Z,10.90
2019-05-21T01:01:36.021Z,10.90
2019-05-21T01:04:16.300Z,10.80
2019-05-21T01:07:35.765Z,10.70
2019-05-21T01:10:04.961Z,10.70
2019-05-21T01:12:34.605Z,10.70
2019-05-21T01:15:04.092Z,10.70
2019-05-21T01:17:33.490Z,10.70
2019-05-21T01:20:04.493Z,10.70
2019-05-21T01:22:37.194Z,10.70
2019-05-21T01:25:06.648Z,10.70
2019-05-21T01:27:38.370Z,10.70
2019-05-21T01:30:09.884Z,10.70
2019-05-21T01:32:39.302Z,10.60
2019-05-21T01:35:17.141Z,10.60
2019-05-21T01:37:39.938Z,10.60
2019-05-21T01:40:09.474Z,10.60
2019-05-21T01:42:39.986Z,10.60
2019-05-21T01:45:09.624Z,10.60
2019-05-21T01:47:43.032Z,10.50
2019-05-21T01:50:19.574Z,10.50
2019-05-21T01:52:50.359Z,10.50
2019-05-21T01:55:21.874Z,10.40
2019-05-21T01:57:51.683Z,10.40
2019-05-21T02:00:21.640Z,10.40
2019-05-21T02:02:53.820Z,10.40
2019-05-21T02:05:32.516Z,10.40
2019-05-21T02:07:54.394Z,10.30
2019-05-21T02:10:23.739Z,10.30
2019-05-21T02:12:53.208Z,10.30
2019-05-21T02:15:24.099Z,10.30
2019-05-21T02:17:54.987Z,10.30
2019-05-21T02:20:30.121Z,10.30
2019-05-21T02:23:01.845Z,10.30
2019-05-21T02:25:34.555Z,10.30
2019-05-21T02:28:04.318Z,10.30
2019-05-21T02:30:35.900Z,10.30
2019-05-21T02:33:06.699Z,10.30
2019-05-21T02:35:52.768Z,10.30
2019-05-21T02:38:08.392Z,10.30
2019-05-21T02:40:37.826Z,10.30
2019-05-21T02:43:07.638Z,10.30
2019-05-21T02:45:38.244Z,10.30
2019-05-21T02:48:07.672Z,10.30
2019-05-21T02:50:38.463Z,10.30
2019-05-21T02:53:10.751Z,10.30
2019-05-21T02:55:43.000Z,10.30
2019-05-21T02:58:16.850Z,10.30
2019-05-21T03:01:20.638Z,10.30
2019-05-21T03:03:50.367Z,10.30
2019-05-21T03:06:21.066Z,10.20
2019-05-21T03:08:50.442Z,10.20
2019-05-21T03:11:23.599Z,10.20
2019-05-21T03:13:54.487Z,10.20
2019-05-21T03:16:24.512Z,10.30
2019-05-21T03:18:55.158Z,10.20
2019-05-21T03:21:28.364Z,10.20
2019-05-21T03:23:58.476Z,10.20
2019-05-21T03:26:47.799Z,10.30
2019-05-21T03:29:17.548Z,10.20
2019-05-21T03:31:47.019Z,10.30
2019-05-21T03:34:18.488Z,10.30
2019-05-21T03:36:51.066Z,10.30
2019-05-21T03:39:20.306Z,10.20
2019-05-21T03:41:53.920Z,10.20
2019-05-21T03:44:25.894Z,10.20
2019-05-21T03:46:55.819Z,10.20
2019-05-21T03:49:28.601Z,10.20
2019-05-21T03:51:58.550Z,10.20
2019-05-21T03:54:27.894Z,10.20
2019-05-21T03:56:57.316Z,10.20
2019-05-21T03:59:29.010Z,10.20
2019-05-21T04:01:59.837Z,10.20
2019-05-21T04:04:29.652Z,10.20
2019-05-21T04:07:00.854Z,10.20
2019-05-21T04:09:30.474Z,10.20
2019-05-21T04:12:00.741Z,10.20
2019-05-21T04:14:35.524Z,10.10
2019-05-21T04:17:26.949Z,10.10
2019-05-21T04:19:56.641Z,10.10
2019-05-21T04:22:30.089Z,10.10
2019-05-21T04:24:59.440Z,10.20
2019-05-21T04:27:28.781Z,10.20
2019-05-21T04:29:58.121Z,10.20
2019-05-21T04:32:27.585Z,10.20
2019-05-21T04:34:57.406Z,10.30
2019-05-21T04:37:27.221Z,10.30
2019-05-21T04:39:57.653Z,10.20
2019-05-21T04:42:27.005Z,10.30
2019-05-21T04:44:59.438Z,10.30
2019-05-21T04:47:30.483Z,10.30
2019-05-21T04:49:59.962Z,10.30
2019-05-21T04:52:29.333Z,10.30
2019-05-21T04:54:59.044Z,10.40
2019-05-21T04:57:28.501Z,10.40
2019-05-21T05:00:07.040Z,10.30
2019-05-21T05:02:36.733Z,10.30
2019-05-21T05:05:08.673Z,10.30
2019-05-21T05:07:38.734Z,10.30
2019-05-21T05:10:08.768Z,10.40
2019-05-21T05:12:40.202Z,10.40
2019-05-21T05:15:11.215Z,10.40
2019-05-21T05:17:40.670Z,10.40
2019-05-21T05:20:10.164Z,10.30
2019-05-21T05:22:39.559Z,10.30
2019-05-21T05:25:10.066Z,10.30
2019-05-21T05:27:39.640Z,10.30
2019-05-21T05:30:11.529Z,10.30
2019-05-21T05:32:40.884Z,10.30
2019-05-21T05:35:10.545Z,10.30
2019-05-21T05:37:46.363Z,10.40
2019-05-21T05:40:12.137Z,10.40
2019-05-21T05:42:41.732Z,10.40
2019-05-21T05:45:12.884Z,10.50
2019-05-21T05:47:42.927Z,10.50
2019-05-21T05:50:16.563Z,10.60
2019-05-21T05:52:47.821Z,10.60
2019-05-21T05:55:17.670Z,10.60
2019-05-21T05:57:47.336Z,10.60
2019-05-21T06:00:20.655Z,10.70
2019-05-21T06:02:50.378Z,10.70
2019-05-21T06:05:21.119Z,10.70
2019-05-21T06:07:59.246Z,10.70
2019-05-21T06:10:22.051Z,10.70
2019-05-21T06:12:53.172Z,10.80
2019-05-21T06:15:22.679Z,10.80
2019-05-21T06:17:52.402Z,10.80
2019-05-21T06:20:22.575Z,10.80
2019-05-21T06:22:52.537Z,10.90
2019-05-21T06:25:23.873Z,11.00
2019-05-21T06:27:53.166Z,11.00
2019-05-21T06:30:22.464Z,11.10
2019-05-21T06:32:51.848Z,11.10
2019-05-21T06:35:22.494Z,11.20
2019-05-21T06:37:51.873Z,11.20
2019-05-21T06:40:21.126Z,11.40
2019-05-21T06:42:50.580Z,11.40
2019-05-21T06:45:20.972Z,11.50
2019-05-21T06:47:50.244Z,11.50
2019-05-21T06:50:19.703Z,11.50
2019-05-21T06:52:48.962Z,11.50
2019-05-21T06:55:18.351Z,11.50
2019-05-21T06:57:48.588Z,11.60
2019-05-21T07:00:20.440Z,11.60
2019-05-21T07:02:52.002Z,11.60
2019-05-21T07:05:21.474Z,11.60
2019-05-21T07:07:50.780Z,11.60
2019-05-21T07:10:20.071Z,11.50
2019-05-21T07:12:49.360Z,11.40
2019-05-21T07:15:22.387Z,11.60
2019-05-21T07:17:54.429Z,11.50
2019-05-21T07:20:23.791Z,11.50
2019-05-21T07:22:52.993Z,11.50
2019-05-21T07:25:24.597Z,11.40
2019-05-21T07:27:57.883Z,11.50
2019-05-21T07:30:30.071Z,11.50
2019-05-21T07:32:59.304Z,11.50
2019-05-21T07:35:28.504Z,11.40
2019-05-21T07:37:59.857Z,11.40
2019-05-21T07:40:28.981Z,11.50
2019-05-21T07:42:58.460Z,11.60
2019-05-21T07:45:27.668Z,11.70
2019-05-21T07:48:08.153Z,11.80
2019-05-21T07:50:42.425Z,12.10
2019-05-21T07:53:12.983Z,12.30
2019-05-21T07:55:42.167Z,12.40
2019-05-21T07:58:11.408Z,12.40
2019-05-21T08:00:40.590Z,12.60
2019-05-21T08:03:09.874Z,12.70
2019-05-21T08:05:44.357Z,12.70
2019-05-21T08:08:15.872Z,12.70
2019-05-21T08:10:46.253Z,12.70
2019-05-21T08:13:15.515Z,12.60
2019-05-21T08:15:44.844Z,12.60
2019-05-21T08:18:16.213Z,12.70
2019-05-21T08:21:17.083Z,12.70
2019-05-21T08:23:46.801Z,13.00
2019-05-21T08:26:16.159Z,13.30
2019-05-21T08:28:45.488Z,13.40
2019-05-21T08:31:17.824Z,13.20
2019-05-21T08:33:47.161Z,13.30
2019-05-21T08:36:18.430Z,13.70
2019-05-21T08:38:47.747Z,13.80
2019-05-21T08:41:16.913Z,13.60
2019-05-21T08:43:46.140Z,13.60
2019-05-21T08:46:18.080Z,13.40
2019-05-21T08:48:47.382Z,13.60
2019-05-21T08:51:16.620Z,13.80
2019-05-21T08:53:49.055Z,13.50
2019-05-21T08:56:20.450Z,13.70
2019-05-21T08:58:51.144Z,13.60
2019-05-21T09:04:46.384Z,13.50
2019-05-21T09:07:13.912Z,13.60
2019-05-21T09:09:50.545Z,13.50
2019-05-21T09:12:23.173Z,13.40
2019-05-21T09:14:56.349Z,13.60
2019-05-21T09:17:25.855Z,13.60
2019-05-21T09:19:58.147Z,13.80
2019-05-21T09:22:29.010Z,13.90
2019-05-21T09:24:59.765Z,13.60
2019-05-21T09:27:29.308Z,13.90
2019-05-21T09:30:00.397Z,14.00
2019-05-21T09:32:29.676Z,14.50
2019-05-21T09:34:59.191Z,14.20
2019-05-21T09:37:28.467Z,14.10
2019-05-21T09:40:02.232Z,14.30
2019-05-21T09:42:32.073Z,14.30
2019-05-21T09:45:01.681Z,14.20
2019-05-21T09:47:30.954Z,14.30
2019-05-21T09:50:00.400Z,14.10
2019-05-21T09:52:29.802Z,14.00
2019-05-21T09:54:59.141Z,13.60
2019-05-21T09:57:36.214Z,13.60
2019-05-21T10:00:15.899Z,14.00
2019-05-21T10:02:45.522Z,14.10
2019-05-21T10:05:16.201Z,14.50
2019-05-21T10:07:50.438Z,14.20
2019-05-21T10:10:26.356Z,14.70
2019-05-21T10:12:55.433Z,14.90
2019-05-21T10:15:24.586Z,15.10
2019-05-21T10:17:54.896Z,14.90
2019-05-21T10:20:27.727Z,14.80
2019-05-21T10:22:57.033Z,14.90
2019-05-21T10:25:27.542Z,15.60
2019-05-21T10:27:57.700Z,15.60
2019-05-21T10:30:27.298Z,16.10
2019-05-21T10:32:56.485Z,16.10
2019-05-21T10:35:25.692Z,15.70
2019-05-21T10:37:55.601Z,15.80
2019-05-21T10:40:25.519Z,16.70
2019-05-21T10:42:55.780Z,16.60
2019-05-21T10:45:25.373Z,16.60
2019-05-21T10:47:54.694Z,16.00
2019-05-21T10:50:23.912Z,15.90
2019-05-21T10:52:53.118Z,15.80
2019-05-21T10:55:22.382Z,16.20
2019-05-21T10:57:51.899Z,16.40
2019-05-21T11:00:23.292Z,16.60
2019-05-21T11:03:17.355Z,16.30
2019-05-21T11:05:50.099Z,16.80
2019-05-21T11:08:23.836Z,16.80
2019-05-21T11:10:53.616Z,17.00
2019-05-21T11:13:22.765Z,16.40
2019-05-21T11:15:52.081Z,17.00
2019-05-21T11:18:21.275Z,16.60
2019-05-21T11:20:50.524Z,16.20
2019-05-21T11:23:20.943Z,15.90
2019-05-21T11:25:53.550Z,16.40
2019-05-21T11:28:23.088Z,15.80
2019-05-21T11:30:52.852Z,16.00
2019-05-21T11:33:24.170Z,16.10
2019-05-21T11:35:55.249Z,15.50
2019-05-21T11:38:39.119Z,15.90
2019-05-21T11:40:57.335Z,16.20
2019-05-21T11:43:26.641Z,16.50
2019-05-21T11:45:55.914Z,16.50
2019-05-21T11:48:27.962Z,16.10
2019-05-21T11:50:57.106Z,16.40
2019-05-21T11:53:31.412Z,15.80
2019-05-21T11:55:58.064Z,15.70
2019-05-21T11:58:27.496Z,15.70
2019-05-21T12:00:56.973Z,15.80
2019-05-21T12:03:27.694Z,15.50
2019-05-21T12:05:57.013Z,15.90
2019-05-21T12:08:27.744Z,16.10
2019-05-21T12:11:00.035Z,16.70
2019-05-21T12:13:29.261Z,17.30
2019-05-21T12:15:59.005Z,17.40
2019-05-21T12:18:29.127Z,16.30
2019-05-21T12:20:58.297Z,16.40
2019-05-21T12:23:30.705Z,16.80
2019-05-21T12:25:59.892Z,17.20
2019-05-21T12:28:30.385Z,17.80
2019-05-21T12:31:00.333Z,17.80
2019-05-21T12:33:29.638Z,17.70
2019-05-21T12:36:00.289Z,16.20
2019-05-21T12:38:29.959Z,16.30
2019-05-21T12:41:01.924Z,16.20
2019-05-21T12:43:31.185Z,16.10
2019-05-21T12:46:00.338Z,16.20
2019-05-21T12:48:29.874Z,16.00
2019-05-21T12:51:01.320Z,15.70
2019-05-21T12:53:30.539Z,15.70
2019-05-21T12:56:01.782Z,16.20
2019-05-21T12:58:31.017Z,15.90
2019-05-21T13:01:00.222Z,16.20
2019-05-21T13:03:30.614Z,16.00
2019-05-21T13:06:01.513Z,16.30
2019-05-21T13:08:30.768Z,16.00
2019-05-21T13:11:00.069Z,15.70
2019-05-21T13:13:29.610Z,15.80
2019-05-21T13:15:59.720Z,15.90
2019-05-21T13:18:30.802Z,15.80
2019-05-21T13:21:00.051Z,15.70
2019-05-21T13:23:29.430Z,15.00
2019-05-21T13:25:59.723Z,15.30
2019-05-21T13:28:28.937Z,15.40
2019-05-21T13:30:59.243Z,15.20
2019-05-21T13:33:28.508Z,15.80
2019-05-21T13:35:57.738Z,15.50
2019-05-21T13:38:26.978Z,15.60
2019-05-21T13:40:56.417Z,15.30
2019-05-21T13:43:25.683Z,15.30
2019-05-21T13:45:54.878Z,15.10
2019-05-21T13:48:26.079Z,15.10
2019-05-21T13:50:56.268Z,15.30
2019-05-21T13:53:27.379Z,14.80
2019-05-21T13:55:57.189Z,15.10
2019-05-21T13:58:26.836Z,15.10
2019-05-21T14:00:56.636Z,15.40
2019-05-21T14:03:25.836Z,15.80
2019-05-21T14:05:55.092Z,15.80
2019-05-21T14:08:24.303Z,15.60
2019-05-21T14:10:54.492Z,15.30
2019-05-21T14:13:24.852Z,15.30
2019-05-21T14:15:56.115Z,14.60
2019-05-21T14:18:26.896Z,15.10
2019-05-21T14:20:56.358Z,15.60
2019-05-21T14:23:26.632Z,15.80
2019-05-21T14:25:56.959Z,15.90
2019-05-21T14:28:34.428Z,16.00
2019-05-21T14:31:02.607Z,15.80
2019-05-21T14:33:35.836Z,15.40
2019-05-21T14:36:07.453Z,15.30
2019-05-21T14:38:38.509Z,15.10
2019-05-21T14:41:10.084Z,15.70
2019-05-21T14:43:41.556Z,15.60
2019-05-21T14:46:12.152Z,15.30
2019-05-21T14:48:44.518Z,15.60
2019-05-21T14:51:36.056Z,15.70
2019-05-21T14:54:25.351Z,15.90
2019-05-21T14:56:47.451Z,15.20
2019-05-21T14:59:16.770Z,15.70
2019-05-21T15:01:46.097Z,16.30
2019-05-21T15:04:15.417Z,16.60
2019-05-21T15:06:44.769Z,16.70
2019-05-21T15:09:14.354Z,15.80
2019-05-21T15:11:43.598Z,15.30
2019-05-21T15:14:15.633Z,15.70
2019-05-21T15:16:47.857Z,15.60
2019-05-21T15:19:17.408Z,15.90
2019-05-21T15:21:51.729Z,15.50
2019-05-21T15:24:22.144Z,15.70
2019-05-21T15:26:52.831Z,16.30
2019-05-21T15:29:22.016Z,15.60
2019-05-21T15:31:51.237Z,15.90
2019-05-21T15:34:20.521Z,16.20
2019-05-21T15:36:49.986Z,16.10
2019-05-21T15:39:19.364Z,16.30
2019-05-21T15:41:48.678Z,15.70
2019-05-21T15:44:19.312Z,16.10
2019-05-21T15:46:52.106Z,15.80
2019-05-21T15:49:35.080Z,16.30
2019-05-21T15:51:55.061Z,16.30
2019-05-21T15:54:24.143Z,16.20
2019-05-21T15:56:53.805Z,15.60
2019-05-21T15:59:23.495Z,16.30
2019-05-21T16:02:00.281Z,15.70
2019-05-21T16:04:29.521Z,15.60
2019-05-21T16:06:58.815Z,15.50
2019-05-21T16:09:31.468Z,15.20
2019-05-21T16:12:06.427Z,15.30
2019-05-21T16:14:36.123Z,15.30
2019-05-21T16:17:05.405Z,15.10
2019-05-21T16:19:40.732Z,14.70
2019-05-21T16:22:10.000Z,14.50
2019-05-21T16:24:39.172Z,14.60
2019-05-21T16:27:08.362Z,14.20
2019-05-21T16:29:39.502Z,14.20
2019-05-21T16:32:09.882Z,14.00
2019-05-21T16:34:42.246Z,13.90
2019-05-21T16:37:15.241Z,13.90
2019-05-21T16:40:06.430Z,13.80
2019-05-21T16:42:35.620Z,13.60
2019-05-21T16:45:06.567Z,13.40
2019-05-21T16:47:45.535Z,13.40
2019-05-21T16:50:14.547Z,13.40
2019-05-21T16:52:45.554Z,13.50
2019-05-21T16:55:15.394Z,13.40
2019-05-21T16:57:46.894Z,13.30
2019-05-21T17:00:18.361Z,13.30
2019-05-21T17:02:47.836Z,13.50
2019-05-21T17:05:17.029Z,13.30
2019-05-21T17:07:46.241Z,13.30
2019-05-21T17:10:16.954Z,13.10
2019-05-21T17:12:46.179Z,13.20
2019-05-21T17:15:15.353Z,13.30
2019-05-21T17:17:44.554Z,13.20
2019-05-21T17:20:14.471Z,13.10
2019-05-21T17:22:43.614Z,13.00
2019-05-21T17:25:14.891Z,13.00
2019-05-21T17:27:44.134Z,13.00
2019-05-21T17:30:13.869Z,12.90
2019-05-21T17:32:43.149Z,13.00
2019-05-21T17:35:12.609Z,12.80
2019-05-21T17:37:41.867Z,12.60
2019-05-21T17:40:13.466Z,12.40
2019-05-21T17:42:48.622Z,12.40
2019-05-21T17:45:18.188Z,12.50
2019-05-21T17:47:47.434Z,12.40
2019-05-21T17:50:21.530Z,12.30
2019-05-21T17:52:53.237Z,12.40
2019-05-21T17:55:25.806Z,12.40
2019-05-21T17:57:55.324Z,12.20
2019-05-21T18:00:53.261Z,12.30
2019-05-21T18:03:22.662Z,12.30
2019-05-21T18:05:52.554Z,12.00
2019-05-21T18:08:22.539Z,11.90
2019-05-21T18:10:53.752Z,11.90
2019-05-21T18:13:24.666Z,11.80
2019-05-21T18:15:57.017Z,11.90
2019-05-21T18:18:27.905Z,11.90
2019-05-21T18:21:00.707Z,11.80
2019-05-21T18:23:33.111Z,11.80
2019-05-21T18:26:03.489Z,11.90
2019-05-21T18:28:35.004Z,11.90
2019-05-21T18:31:07.030Z,12.00
2019-05-21T18:33:36.885Z,12.10
2019-05-21T18:36:06.049Z,12.10
2019-05-21T18:38:35.249Z,12.10
2019-05-21T18:41:05.353Z,12.00
2019-05-21T18:43:34.536Z,12.00
2019-05-21T18:46:03.722Z,12.00
2019-05-21T18:48:32.925Z,12.00
2019-05-21T18:51:02.171Z,12.00
2019-05-21T18:53:33.760Z,12.00
2019-05-21T18:56:03.381Z,12.00
2019-05-21T18:58:34.843Z,12.00
2019-05-21T19:01:04.685Z,12.00
2019-05-21T19:03:34.021Z,11.90
2019-05-21T19:06:03.722Z,11.90
2019-05-21T19:08:33.143Z,11.80
2019-05-21T19:11:08.226Z,11.80
2019-05-21T19:13:37.792Z,11.90
2019-05-21T19:16:15.056Z,11.80
2019-05-21T19:18:44.350Z,11.70
2019-05-21T19:21:16.994Z,11.60
2019-05-21T19:23:46.293Z,11.60
2019-05-21T19:26:16.213Z,11.60
2019-05-21T19:28:47.291Z,11.50
2019-05-21T19:31:17.851Z,11.40
2019-05-21T19:33:47.080Z,11.40
2019-05-21T19:36:17.638Z,11.40
2019-05-21T19:38:46.901Z,11.40
2019-05-21T19:41:16.345Z,11.50
2019-05-21T19:43:45.935Z,11.50
2019-05-21T19:46:15.217Z,11.60
2019-05-21T19:48:46.793Z,11.50
2019-05-21T19:51:17.361Z,11.60
2019-05-21T19:53:48.494Z,11.60
2019-05-21T19:56:17.971Z,11.50
2019-05-21T19:58:48.491Z,11.60
2019-05-21T20:01:19.670Z,11.50
2019-05-21T20:03:58.341Z,11.50
2019-05-21T20:06:29.372Z,11.50
2019-05-21T20:09:00.336Z,11.50
2019-05-21T20:11:30.128Z,11.50
2019-05-21T20:14:05.865Z,11.40
2019-05-21T20:16:36.823Z,11.40
2019-05-21T20:19:07.014Z,11.30
2019-05-21T20:21:38.350Z,11.20
2019-05-21T20:24:12.455Z,11.20
2019-05-21T20:26:43.377Z,11.20
2019-05-21T20:29:13.891Z,11.20
2019-05-21T20:31:44.801Z,11.10
2019-05-21T20:34:14.158Z,11.10
2019-05-21T20:36:47.008Z,11.00
2019-05-21T20:39:21.873Z,10.80
2019-05-21T20:41:51.767Z,10.70
2019-05-21T20:44:21.561Z,10.60
2019-05-21T20:46:55.041Z,10.50
2019-05-21T20:49:26.313Z,10.40
2019-05-21T20:51:58.723Z,10.50
2019-05-21T20:54:32.587Z,10.50
2019-05-21T20:57:08.334Z,10.60
2019-05-21T20:59:41.524Z,10.60
2019-05-21T21:02:24.364Z,10.60
2019-05-21T21:04:54.064Z,10.70
2019-05-21T21:07:25.114Z,10.70
2019-05-21T21:09:55.056Z,10.70
2019-05-21T21:12:27.681Z,10.80
2019-05-21T21:15:04.504Z,10.80
2019-05-21T21:17:33.811Z,10.80
2019-05-21T21:20:05.575Z,10.70
2019-05-21T21:22:35.502Z,10.70
2019-05-21T21:25:07.864Z,10.70
2019-05-21T21:27:37.502Z,10.60
2019-05-21T21:30:12.751Z,10.60
2019-05-21T21:32:42.764Z,10.60
2019-05-21T21:35:12.226Z,10.60
2019-05-21T21:37:41.430Z,10.70
2019-05-21T21:40:14.664Z,10.60
2019-05-21T21:42:45.191Z,10.60
2019-05-21T21:45:18.083Z,10.60
2019-05-21T21:47:50.964Z,10.60
2019-05-21T21:50:21.586Z,10.60
2019-05-21T21:52:54.322Z,10.50
2019-05-21T21:55:23.792Z,10.50
2019-05-21T21:57:53.514Z,10.50
2019-05-21T22:01:25.889Z,10.50
2019-05-21T22:04:06.478Z,10.50
2019-05-21T22:06:39.858Z,10.60
2019-05-21T22:09:14.241Z,10.60
2019-05-21T22:11:51.297Z,10.60
2019-05-21T22:14:21.904Z,10.70
2019-05-21T22:16:52.826Z,10.70
2019-05-21T22:19:24.298Z,10.70
2019-05-21T22:21:56.603Z,10.80
2019-05-21T22:24:28.811Z,10.80
2019-05-21T22:27:01.298Z,10.80
2019-05-21T22:29:33.648Z,10.80
2019-05-21T22:32:05.543Z,10.80
2019-05-21T22:34:36.794Z,10.80
2019-05-21T22:37:09.067Z,10.80
2019-05-21T22:39:41.848Z,10.80
2019-05-21T22:42:13.858Z,10.80
2019-05-21T22:44:45.918Z,10.80
2019-05-21T22:47:15.831Z,10.80
2019-05-21T22:49:46.308Z,10.70
2019-05-21T22:52:16.032Z,10.80
2019-05-21T22:54:47.266Z,10.80
2019-05-21T22:57:17.754Z,10.80
2019-05-21T22:59:53.452Z,10.80
2019-05-21T23:02:28.984Z,10.70
2019-05-21T23:05:01.711Z,10.70
2019-05-21T23:07:31.921Z,10.70
2019-05-21T23:10:07.193Z,10.70
2019-05-21T23:12:38.072Z,10.60
2019-05-21T23:15:24.359Z,10.60
2019-05-21T23:17:43.889Z,10.50
2019-05-21T23:20:14.115Z,10.40
2019-05-21T23:22:45.965Z,10.30
2019-05-21T23:25:22.379Z,10.30
2019-05-21T23:27:59.235Z,10.20
2019-05-21T23:30:29.043Z,10.10
2019-05-21T23:32:58.675Z,10.00
2019-05-21T23:35:28.579Z,10.00
2019-05-21T23:38:00.440Z,9.90
2019-05-21T23:40:38.908Z,10.00
2019-05-21T23:43:09.988Z,10.00
2019-05-21T23:45:43.944Z,10.10
2019-05-21T23:48:14.394Z,10.10
2019-05-21T23:50:44.941Z,10.10
2019-05-21T23:53:14.848Z,10.20
2019-05-21T23:55:45.369Z,10.20
2019-05-21T23:58:17.125Z,10.20
